Time;durP1;ratioP1;P1;durP2;ratioP2;P2;SDS_P1;SDS_P2;PMS_P1;PMS_P2;Temp;Humidity;BMP_temperature;BMP_pressure;BME280_temperature;BME280_humidity;BME280_pressure;Samples;Min_cycle;Max_cycle;Signal;HPM_P1;HPM_P2
2022/03/30 00:00:47;;;;;;;33.03;19.45;;;6.10;99.90;;;;;;5071214;28;20024;-57
2022/03/30 00:03:13;;;;;;;25.80;17.98;;;6.10;99.90;;;;;;5071324;28;20368;-55
2022/03/30 00:05:39;;;;;;;34.53;19.02;;;6.10;99.90;;;;;;5071308;28;20021;-56
2022/03/30 00:08:05;;;;;;;39.42;20.15;;;6.20;99.90;;;;;;5070593;28;20115;-57
2022/03/30 00:10:32;;;;;;;32.30;18.27;;;6.10;99.90;;;;;;5070910;28;20036;-55
2022/03/30 00:12:58;;;;;;;32.95;19.65;;;6.10;99.90;;;;;;5070530;28;20032;-52
2022/03/30 00:15:24;;;;;;;37.53;21.00;;;6.00;99.90;;;;;;5070656;28;20017;-56
2022/03/30 00:17:51;;;;;;;43.30;21.25;;;6.00;99.90;;;;;;5071769;28;20021;-55
2022/03/30 00:20:17;;;;;;;34.00;20.05;;;6.00;99.90;;;;;;5074944;28;20025;-57
2022/03/30 00:22:43;;;;;;;32.75;19.40;;;6.00;99.90;;;;;;5075637;28;20365;-57
2022/03/30 00:25:10;;;;;;;34.45;19.23;;;5.90;99.90;;;;;;5075411;28;20020;-52
2022/03/30 00:27:37;;;;;;;35.63;21.10;;;5.80;99.90;;;;;;5075438;28;20357;-52
2022/03/30 00:30:04;;;;;;;37.40;21.05;;;5.70;99.90;;;;;;5075135;28;20170;-54
2022/03/30 00:32:30;;;;;;;35.45;20.65;;;5.80;99.90;;;;;;5074492;28;20118;-57
2022/03/30 00:34:56;;;;;;;34.60;19.77;;;5.90;99.90;;;;;;5074074;28;20055;-55
2022/03/30 00:37:21;;;;;;;27.27;18.77;;;6.00;99.90;;;;;;5074520;28;20464;-54
2022/03/30 00:39:47;;;;;;;31.52;19.63;;;6.10;99.90;;;;;;5074233;28;20529;-54
2022/03/30 00:42:17;;;;;;;27.63;19.75;;;6.10;99.90;;;;;;5075069;28;20024;-55
2022/03/30 00:44:43;;;;;;;26.48;19.17;;;6.10;99.90;;;;;;5074883;28;20372;-55
2022/03/30 00:47:17;;;;;;;28.88;19.98;;;6.20;99.90;;;;;;5074877;28;20036;-55
2022/03/30 00:49:43;;;;;;;38.25;20.08;;;6.20;99.90;;;;;;5074755;28;20029;-54
2022/03/30 00:52:09;;;;;;;32.22;20.02;;;6.30;99.90;;;;;;5073817;28;20031;-57
2022/03/30 00:54:36;;;;;;;32.70;19.08;;;6.30;99.90;;;;;;5074056;28;20024;-56
2022/03/30 00:57:05;;;;;;;29.58;17.40;;;6.30;99.90;;;;;;5073913;28;20017;-58
2022/03/30 00:59:32;;;;;;;28.33;19.00;;;6.30;99.90;;;;;;5073925;28;20029;-54
2022/03/30 01:01:59;;;;;;;34.70;17.92;;;6.30;99.90;;;;;;5073577;28;20025;-55
2022/03/30 01:04:26;;;;;;;26.67;16.98;;;6.30;99.90;;;;;;5074612;28;20037;-57
2022/03/30 01:06:52;;;;;;;42.95;18.02;;;6.20;99.90;;;;;;5074260;28;20377;-54
2022/03/30 01:09:18;;;;;;;28.15;18.85;;;6.10;99.90;;;;;;5074094;28;20036;-54
2022/03/30 01:11:43;;;;;;;36.13;18.98;;;6.20;99.90;;;;;;5073643;28;20013;-57
2022/03/30 01:14:11;;;;;;;36.95;19.23;;;6.20;99.90;;;;;;5074219;28;20045;-53
2022/03/30 01:16:38;;;;;;;31.38;18.30;;;6.30;99.90;;;;;;5074420;28;20055;-51
2022/03/30 01:19:06;;;;;;;26.75;18.00;;;6.30;99.90;;;;;;5073811;28;20116;-57
2022/03/30 01:21:32;;;;;;;39.90;18.50;;;6.40;99.90;;;;;;5074432;28;20035;-56
2022/03/30 01:23:57;;;;;;;28.10;17.58;;;6.30;99.90;;;;;;5073678;28;20024;-56
2022/03/30 01:26:25;;;;;;;25.38;17.70;;;6.40;99.90;;;;;;5074340;28;20031;-53
2022/03/30 01:28:51;;;;;;;34.40;17.65;;;6.40;99.90;;;;;;5073855;28;20027;-56
2022/03/30 01:34:00;;;;;;;24.75;17.48;;;6.40;99.90;;;;;;5073324;28;20040;-56
2022/03/30 01:36:26;;;;;;;30.90;18.27;;;6.50;99.90;;;;;;5074097;28;20017;-54
2022/03/30 01:38:52;;;;;;;23.42;17.95;;;6.50;99.90;;;;;;5071949;28;20032;-56
2022/03/30 01:41:17;;;;;;;32.85;20.33;;;6.40;99.90;;;;;;5074102;28;20046;-55
2022/03/30 01:43:43;;;;;;;33.65;17.80;;;6.30;99.90;;;;;;5073867;28;20032;-54
2022/03/30 01:46:09;;;;;;;26.42;18.25;;;6.30;99.90;;;;;;5073669;28;20056;-55
2022/03/30 01:48:35;;;;;;;34.30;17.52;;;6.30;99.90;;;;;;5073641;28;20020;-56
2022/03/30 01:51:01;;;;;;;24.42;16.63;;;6.30;99.90;;;;;;5073601;28;20416;-57
2022/03/30 01:53:27;;;;;;;26.63;16.40;;;6.20;99.90;;;;;;5073014;28;20031;-55
2022/03/30 01:55:53;;;;;;;25.52;18.15;;;6.20;99.90;;;;;;5072177;28;20027;-55
2022/03/30 01:58:18;;;;;;;27.20;16.42;;;6.10;99.90;;;;;;5073116;28;20379;-55
2022/03/30 02:00:45;;;;;;;26.83;17.17;;;6.00;99.90;;;;;;5073446;28;20081;-53
2022/03/30 02:03:12;;;;;;;27.42;16.67;;;6.00;99.90;;;;;;5073441;28;20341;-55
2022/03/30 02:05:38;;;;;;;31.08;17.83;;;6.00;99.90;;;;;;5073484;28;20025;-56
2022/03/30 02:08:04;;;;;;;24.90;15.32;;;5.90;99.90;;;;;;5073461;28;20027;-53
2022/03/30 02:10:31;;;;;;;30.45;16.60;;;5.90;99.90;;;;;;5072231;28;20078;-55
2022/03/30 02:12:58;;;;;;;23.02;16.15;;;5.80;99.90;;;;;;5073300;28;20066;-53
2022/03/30 02:15:24;;;;;;;28.85;17.15;;;5.70;99.90;;;;;;5073644;28;20115;-55
2022/03/30 02:17:50;;;;;;;26.15;16.60;;;5.60;99.90;;;;;;5071941;28;20028;-54
2022/03/30 02:20:16;;;;;;;21.75;16.42;;;5.50;99.90;;;;;;5073260;28;20460;-54
2022/03/30 02:22:42;;;;;;;27.63;18.42;;;5.40;99.90;;;;;;5073144;28;20056;-53
2022/03/30 02:25:09;;;;;;;28.55;17.02;;;5.40;99.90;;;;;;5072151;28;20135;-55
2022/03/30 02:27:35;;;;;;;29.20;17.85;;;5.30;99.90;;;;;;5072106;28;20410;-54
2022/03/30 02:30:02;;;;;;;30.60;17.20;;;5.20;99.90;;;;;;5071632;28;20037;-51
2022/03/30 02:32:27;;;;;;;27.55;16.77;;;5.20;99.90;;;;;;5072814;28;20073;-54
2022/03/30 02:34:53;;;;;;;27.00;18.42;;;5.10;99.90;;;;;;5072828;28;20024;-57
2022/03/30 02:37:19;;;;;;;28.42;17.85;;;5.00;99.90;;;;;;5070985;28;20398;-51
2022/03/30 02:39:45;;;;;;;32.63;18.35;;;5.10;99.90;;;;;;5072390;28;20075;-55
2022/03/30 02:42:11;;;;;;;23.27;17.30;;;5.00;99.90;;;;;;5071570;28;20027;-54
2022/03/30 02:44:38;;;;;;;26.80;18.30;;;5.10;99.90;;;;;;5072787;28;20033;-56
2022/03/30 02:47:05;;;;;;;24.05;17.30;;;5.10;99.90;;;;;;5072792;28;20021;-54
2022/03/30 02:49:31;;;;;;;24.33;17.85;;;5.10;99.90;;;;;;5072539;28;20036;-51
2022/03/30 02:51:57;;;;;;;26.50;17.80;;;5.10;99.90;;;;;;5072484;28;20028;-56
2022/03/30 02:54:24;;;;;;;31.65;16.02;;;5.10;99.90;;;;;;5072391;28;20387;-55
2022/03/30 02:56:50;;;;;;;29.10;17.45;;;5.10;99.90;;;;;;5071795;28;20543;-53
2022/03/30 02:59:16;;;;;;;36.63;18.67;;;5.20;99.90;;;;;;5072564;28;20044;-54
2022/03/30 03:01:41;;;;;;;37.08;16.75;;;5.30;99.90;;;;;;5072399;28;20025;-56
2022/03/30 03:04:07;;;;;;;33.33;18.88;;;5.40;99.90;;;;;;5072327;28;20024;-55
2022/03/30 03:06:35;;;;;;;24.88;18.17;;;5.40;99.90;;;;;;5072375;28;20055;-51
2022/03/30 03:09:01;;;;;;;22.52;16.40;;;5.50;99.90;;;;;;5072240;28;20031;-55
2022/03/30 03:11:27;;;;;;;32.90;18.10;;;5.50;99.90;;;;;;5072580;28;20020;-53
2022/03/30 03:13:53;;;;;;;28.00;18.17;;;5.60;99.90;;;;;;5071991;28;20422;-51
2022/03/30 03:16:18;;;;;;;34.95;19.33;;;5.70;99.90;;;;;;5071023;28;20020;-55
2022/03/30 03:18:45;;;;;;;32.30;17.95;;;5.60;99.90;;;;;;5070646;28;20026;-55
2022/03/30 03:21:11;;;;;;;30.02;18.35;;;5.70;99.90;;;;;;5072300;28;20027;-52
2022/03/30 03:23:36;;;;;;;37.83;20.45;;;5.70;99.90;;;;;;5072096;28;20017;-57
2022/03/30 03:26:02;;;;;;;30.25;19.83;;;5.70;99.90;;;;;;5072115;28;20098;-53
2022/03/30 03:28:28;;;;;;;29.67;18.83;;;5.70;99.90;;;;;;5072078;28;20029;-55
2022/03/30 03:30:54;;;;;;;36.25;19.42;;;5.70;99.90;;;;;;5071869;28;20032;-53
2022/03/30 03:33:20;;;;;;;29.67;19.25;;;5.70;99.90;;;;;;5071822;28;20478;-51
2022/03/30 03:35:47;;;;;;;31.25;17.65;;;5.80;99.90;;;;;;5071897;28;20024;-53
2022/03/30 03:38:13;;;;;;;29.02;17.23;;;5.80;99.90;;;;;;5071828;28;20029;-54
2022/03/30 03:40:40;;;;;;;35.95;20.05;;;5.80;99.90;;;;;;5071810;28;20021;-58
2022/03/30 03:43:06;;;;;;;42.97;22.75;;;5.80;99.90;;;;;;5071800;28;20024;-56
2022/03/30 03:45:31;;;;;;;32.63;21.75;;;5.90;99.90;;;;;;5071776;28;20456;-54
2022/03/30 03:47:57;;;;;;;39.00;20.92;;;6.00;99.90;;;;;;5071906;28;20117;-53
2022/03/30 03:50:23;;;;;;;27.67;19.98;;;6.10;99.90;;;;;;5071771;28;20028;-54
2022/03/30 03:52:49;;;;;;;31.27;20.75;;;6.20;99.90;;;;;;5071396;28;20044;-54
2022/03/30 03:55:15;;;;;;;25.00;17.58;;;6.20;99.90;;;;;;5071579;28;20383;-57
2022/03/30 03:57:42;;;;;;;36.60;20.80;;;6.20;99.90;;;;;;5071669;28;20060;-52
2022/03/30 04:00:10;;;;;;;33.13;18.60;;;6.10;99.90;;;;;;5071597;28;20024;-56
2022/03/30 04:02:35;;;;;;;33.67;17.55;;;6.10;99.90;;;;;;5071668;28;20020;-54
2022/03/30 04:05:01;;;;;;;36.00;19.20;;;6.10;99.90;;;;;;5071594;28;20515;-54
2022/03/30 04:07:27;;;;;;;36.38;18.90;;;6.00;99.90;;;;;;5071471;28;20070;-57
2022/03/30 04:09:53;;;;;;;35.25;18.73;;;6.00;99.90;;;;;;5070407;28;20109;-55
2022/03/30 04:12:19;;;;;;;32.25;18.58;;;6.00;99.90;;;;;;5071442;28;20039;-56
2022/03/30 04:14:44;;;;;;;25.83;16.55;;;6.00;99.90;;;;;;5069935;28;20041;-55
2022/03/30 04:17:11;;;;;;;31.73;16.63;;;6.00;99.90;;;;;;5070653;28;20048;-52
2022/03/30 04:19:38;;;;;;;25.20;15.98;;;5.90;99.90;;;;;;5071442;28;20494;-54
2022/03/30 04:22:04;;;;;;;27.27;16.33;;;5.80;99.90;;;;;;5071255;28;20032;-56
2022/03/30 04:24:30;;;;;;;25.05;16.33;;;5.70;99.90;;;;;;5071382;28;20047;-50
2022/03/30 04:26:56;;;;;;;29.80;18.15;;;5.70;99.90;;;;;;5071302;28;20020;-55
2022/03/30 04:29:21;;;;;;;29.08;16.95;;;5.60;99.90;;;;;;5071166;28;20029;-56
2022/03/30 04:31:47;;;;;;;26.55;16.88;;;5.60;99.90;;;;;;5071250;28;20367;-54
2022/03/30 04:34:13;;;;;;;31.85;17.05;;;5.60;99.90;;;;;;5071252;28;20415;-54
2022/03/30 04:36:38;;;;;;;30.05;18.35;;;5.60;99.90;;;;;;5071176;28;20642;-53
2022/03/30 04:39:04;;;;;;;21.65;16.55;;;5.60;99.90;;;;;;5071255;28;20020;-55
2022/03/30 04:41:30;;;;;;;30.75;17.17;;;5.50;99.90;;;;;;5071234;28;20120;-54
2022/03/30 04:43:55;;;;;;;34.80;17.50;;;5.50;99.90;;;;;;5071074;28;20041;-54
2022/03/30 04:46:21;;;;;;;36.72;18.38;;;5.50;99.90;;;;;;5071139;28;20388;-53
2022/03/30 04:48:47;;;;;;;27.38;17.85;;;5.50;99.90;;;;;;5071160;28;20024;-56
2022/03/30 04:51:12;;;;;;;39.53;17.58;;;5.50;99.90;;;;;;5071138;28;20036;-55
2022/03/30 04:53:38;;;;;;;48.22;15.60;;;5.50;99.90;;;;;;5070895;28;20054;-54
2022/03/30 04:56:05;;;;;;;27.38;15.57;;;5.50;99.90;;;;;;5070967;28;20028;-56
2022/03/30 04:58:31;;;;;;;35.88;16.17;;;5.50;99.90;;;;;;5070950;28;20032;-54
2022/03/30 05:00:57;;;;;;;35.20;16.75;;;5.50;99.90;;;;;;5070955;28;20036;-57
2022/03/30 05:03:22;;;;;;;28.77;17.48;;;5.40;99.90;;;;;;5070918;28;20024;-54
2022/03/30 05:05:48;;;;;;;37.40;17.50;;;5.40;99.90;;;;;;5073318;28;20151;-55
2022/03/30 05:08:14;;;;;;;37.47;19.33;;;5.40;99.90;;;;;;5074635;28;20452;-57
2022/03/30 05:10:40;;;;;;;28.10;16.77;;;5.40;99.90;;;;;;5074270;28;20031;-57
2022/03/30 05:13:06;;;;;;;43.88;22.73;;;5.20;99.90;;;;;;5073865;28;20483;-56
2022/03/30 05:15:32;;;;;;;55.42;23.90;;;5.30;99.90;;;;;;5074535;28;20024;-57
2022/03/30 05:17:59;;;;;;;72.28;29.00;;;5.30;99.90;;;;;;5074442;28;20025;-55
2022/03/30 05:20:25;;;;;;;49.08;24.25;;;5.40;99.90;;;;;;5074064;28;20074;-57
2022/03/30 05:22:51;;;;;;;44.58;20.83;;;5.40;99.90;;;;;;5074096;28;20021;-57
2022/03/30 05:25:19;;;;;;;70.45;30.25;;;5.40;99.90;;;;;;5074284;28;20028;-57
2022/03/30 05:27:46;;;;;;;49.25;21.05;;;5.50;99.90;;;;;;5074004;28;20047;-57
2022/03/30 05:30:12;;;;;;;47.58;22.40;;;5.60;99.90;;;;;;5072915;28;20471;-57
2022/03/30 05:32:38;;;;;;;166.10;58.72;;;5.60;99.90;;;;;;5074332;28;20032;-57
2022/03/30 05:35:05;;;;;;;67.72;32.45;;;5.70;99.90;;;;;;5073738;28;20052;-58
2022/03/30 05:37:32;;;;;;;62.60;25.85;;;5.70;99.90;;;;;;5074215;28;20489;-58
2022/03/30 05:39:58;;;;;;;44.55;22.00;;;5.70;99.90;;;;;;5074029;28;20032;-56
2022/03/30 05:42:23;;;;;;;50.15;22.50;;;5.80;99.90;;;;;;5074098;28;20023;-57
2022/03/30 05:44:50;;;;;;;56.85;24.05;;;5.80;99.90;;;;;;5073264;28;20021;-61
2022/03/30 05:47:16;;;;;;;45.13;23.27;;;5.80;99.90;;;;;;5073989;28;20029;-58
2022/03/30 05:49:42;;;;;;;41.83;19.92;;;5.80;99.90;;;;;;5073939;28;20036;-56
2022/03/30 05:52:45;;;;;;;39.05;21.35;;;5.80;99.90;;;;;;5073759;28;20125;-55
2022/03/30 05:55:10;;;;;;;44.88;22.10;;;5.90;99.90;;;;;;5073489;28;20017;-53
2022/03/30 05:57:36;;;;;;;58.25;29.95;;;6.00;99.90;;;;;;5073274;28;20042;-57
2022/03/30 06:00:05;;;;;;;45.50;23.60;;;6.20;99.90;;;;;;5072388;28;20024;-57
2022/03/30 06:02:31;;;;;;;46.85;22.73;;;6.30;99.90;;;;;;5073501;28;20031;-55
2022/03/30 06:04:57;;;;;;;39.90;20.67;;;6.50;99.90;;;;;;5072227;28;20377;-56
2022/03/30 06:07:23;;;;;;;39.10;19.08;;;6.60;99.90;;;;;;5072808;28;20085;-57
2022/03/30 06:09:49;;;;;;;40.97;21.20;;;6.70;99.90;;;;;;5072611;28;20040;-55
2022/03/30 06:12:15;;;;;;;81.93;39.35;;;6.90;99.90;;;;;;5072594;28;20480;-55
2022/03/30 06:14:41;;;;;;;83.00;42.33;;;7.00;99.90;;;;;;5072072;28;20045;-57
2022/03/30 06:17:08;;;;;;;43.60;20.55;;;6.90;99.90;;;;;;5059971;28;20078;-58
2022/03/30 06:19:34;;;;;;;29.02;18.92;;;7.10;99.90;;;;;;5051952;28;20013;-58
2022/03/30 06:22:05;;;;;;;35.38;20.10;;;7.10;99.90;;;;;;5052501;28;20017;-54
2022/03/30 06:24:31;;;;;;;37.58;18.95;;;7.20;99.90;;;;;;5052962;28;20500;-57
2022/03/30 06:26:57;;;;;;;37.15;17.85;;;7.30;99.90;;;;;;5052813;28;20044;-57
2022/03/30 06:29:22;;;;;;;38.80;19.10;;;7.50;99.90;;;;;;5053007;28;20032;-57
2022/03/30 06:31:48;;;;;;;30.75;19.38;;;7.60;99.90;;;;;;5052994;28;20028;-56
2022/03/30 06:34:13;;;;;;;31.17;20.27;;;7.70;99.90;;;;;;5052697;28;20021;-58
2022/03/30 06:36:39;;;;;;;30.30;18.83;;;7.90;99.90;;;;;;5052922;28;20021;-59
2022/03/30 06:39:05;;;;;;;35.05;17.35;;;8.10;99.90;;;;;;5052682;28;20109;-58
2022/03/30 06:41:31;;;;;;;41.80;19.65;;;8.40;99.90;;;;;;5052882;28;20549;-58
2022/03/30 06:43:56;;;;;;;37.92;19.48;;;8.30;99.90;;;;;;5052650;28;20155;-57
2022/03/30 06:46:22;;;;;;;33.08;19.27;;;8.30;99.90;;;;;;5052650;28;20119;-56
2022/03/30 06:48:48;;;;;;;34.03;18.38;;;8.40;99.90;;;;;;5052321;28;20139;-56
2022/03/30 06:51:15;;;;;;;37.20;18.02;;;8.50;99.90;;;;;;5052589;28;20032;-58
2022/03/30 06:53:41;;;;;;;33.78;17.45;;;8.60;99.90;;;;;;5052483;28;20028;-57
2022/03/30 06:56:08;;;;;;;35.50;17.25;;;8.70;99.90;;;;;;5051043;28;20025;-57
2022/03/30 06:58:34;;;;;;;43.55;19.90;;;9.00;99.90;;;;;;5052234;28;20025;-55
2022/03/30 07:01:00;;;;;;;30.13;19.58;;;9.00;99.90;;;;;;5052308;28;20029;-54
2022/03/30 07:03:28;;;;;;;53.75;20.67;;;9.00;99.90;;;;;;5051964;28;20017;-58
2022/03/30 07:05:55;;;;;;;32.42;17.73;;;9.10;99.90;;;;;;5052285;28;20469;-57
2022/03/30 07:11:05;;;;;;;27.38;16.77;;;9.10;99.90;;;;;;5052335;28;20035;-55
2022/03/30 07:13:31;;;;;;;36.58;17.25;;;9.30;99.90;;;;;;5051770;28;20053;-58
2022/03/30 07:15:56;;;;;;;39.80;17.77;;;9.60;99.90;;;;;;5052045;28;20112;-57
2022/03/30 07:18:22;;;;;;;32.00;18.05;;;9.80;99.90;;;;;;5052101;28;20025;-58
2022/03/30 07:20:48;;;;;;;33.00;17.65;;;9.80;99.90;;;;;;5051956;28;20021;-55
2022/03/30 07:23:14;;;;;;;40.50;18.90;;;10.00;99.90;;;;;;5052148;28;20025;-57
2022/03/30 07:25:40;;;;;;;39.00;16.23;;;10.10;99.90;;;;;;5052015;28;20462;-56
2022/03/30 07:28:06;;;;;;;36.05;17.60;;;10.00;99.90;;;;;;5051321;28;20096;-58
2022/03/30 07:30:32;;;;;;;30.75;17.02;;;10.10;99.90;;;;;;5033745;28;20129;-58
2022/03/30 07:32:59;;;;;;;40.47;16.30;;;10.20;99.90;;;;;;5050349;28;20078;-58
2022/03/30 07:35:32;;;;;;;39.90;15.48;;;10.40;99.90;;;;;;5051665;28;20039;-57
2022/03/30 07:37:58;;;;;;;39.20;20.20;;;10.50;99.70;;;;;;5051778;28;20075;-58
2022/03/30 07:40:24;;;;;;;38.88;15.43;;;10.60;99.90;;;;;;5051721;28;20060;-58
2022/03/30 07:42:51;;;;;;;28.30;13.52;;;10.70;99.30;;;;;;5051576;28;20056;-58
2022/03/30 07:45:18;;;;;;;22.55;13.57;;;10.90;98.80;;;;;;5050591;28;20103;-57
2022/03/30 07:47:44;;;;;;;26.88;12.27;;;11.00;97.50;;;;;;5050303;28;20060;-57
2022/03/30 07:50:11;;;;;;;33.22;14.15;;;11.30;97.00;;;;;;5050199;28;20033;-57
2022/03/30 07:52:38;;;;;;;28.60;14.35;;;11.30;97.60;;;;;;5050522;28;20033;-57
2022/03/30 07:55:06;;;;;;;24.70;13.05;;;11.40;96.80;;;;;;5050086;28;20032;-58
2022/03/30 07:57:32;;;;;;;31.45;13.40;;;11.50;96.40;;;;;;5050717;28;20021;-56
2022/03/30 08:00:17;;;;;;;24.23;13.38;;;11.70;96.20;;;;;;5050208;28;20032;-57
2022/03/30 08:02:44;;;;;;;30.75;12.85;;;11.80;95.90;;;;;;5050519;28;20075;-58
2022/03/30 08:05:12;;;;;;;32.38;14.85;;;12.10;95.40;;;;;;5049981;28;20032;-58
2022/03/30 08:07:40;;;;;;;34.20;16.90;;;12.30;94.70;;;;;;5051198;28;20025;-58
2022/03/30 08:10:08;;;;;;;36.90;12.80;;;12.20;94.80;;;;;;5050950;28;20036;-58
2022/03/30 08:12:35;;;;;;;28.20;13.73;;;12.30;94.60;;;;;;5051275;28;20032;-50
2022/03/30 08:15:01;;;;;;;33.38;14.00;;;12.20;93.50;;;;;;5050871;28;20098;-59
2022/03/30 08:17:26;;;;;;;23.63;12.63;;;12.20;94.20;;;;;;5051187;28;20020;-59
2022/03/30 08:19:52;;;;;;;25.88;13.07;;;12.40;93.10;;;;;;5051212;28;20021;-59
2022/03/30 08:22:28;;;;;;;26.75;12.95;;;12.50;93.40;;;;;;5051105;28;20017;-53
2022/03/30 08:24:56;;;;;;;25.02;12.65;;;12.60;93.10;;;;;;5051037;28;20031;-59
2022/03/30 08:27:24;;;;;;;26.15;13.43;;;12.80;92.40;;;;;;5051101;28;20025;-59
2022/03/30 08:29:51;;;;;;;28.95;13.82;;;12.80;92.30;;;;;;5050919;28;20025;-58
2022/03/30 08:32:18;;;;;;;26.75;13.50;;;13.00;92.10;;;;;;5050985;28;20029;-58
2022/03/30 08:34:44;;;;;;;59.50;15.05;;;13.20;91.40;;;;;;5050951;28;20017;-58
2022/03/30 08:37:11;;;;;;;26.17;14.63;;;13.20;91.30;;;;;;5050902;28;20154;-57
2022/03/30 08:39:37;;;;;;;38.13;13.60;;;13.60;91.30;;;;;;5051757;28;20436;-56
2022/03/30 08:42:08;;;;;;;28.67;14.13;;;13.70;90.80;;;;;;5054823;28;20356;-57
2022/03/30 08:44:36;;;;;;;27.95;13.57;;;14.10;90.80;;;;;;5055071;28;20361;-57
2022/03/30 08:47:03;;;;;;;26.85;13.57;;;13.90;90.40;;;;;;5053394;28;20025;-57
2022/03/30 08:49:34;;;;;;;22.15;13.05;;;13.70;91.10;;;;;;5055013;28;20040;-58
2022/03/30 08:52:03;;;;;;;24.70;14.93;;;13.70;91.00;;;;;;5054440;28;20028;-57
2022/03/30 08:54:29;;;;;;;26.65;14.65;;;13.70;90.30;;;;;;5054263;28;20059;-54
2022/03/30 08:56:54;;;;;;;30.75;13.52;;;13.80;91.10;;;;;;5054701;28;20106;-56
2022/03/30 08:59:22;;;;;;;34.25;13.93;;;13.90;88.80;;;;;;5054868;28;20643;-58
2022/03/30 09:01:49;;;;;;;27.58;14.13;;;13.90;90.10;;;;;;5054133;28;20028;-58
2022/03/30 09:04:16;;;;;;;21.80;14.15;;;14.10;85.90;;;;;;5054425;28;20017;-57
2022/03/30 09:06:44;;;;;;;42.40;14.00;;;14.30;87.20;;;;;;5049043;28;20025;-59
2022/03/30 09:09:15;;;;;;;22.83;14.13;;;14.50;85.70;;;;;;5036436;28;20148;-57
2022/03/30 09:11:40;;;;;;;29.00;12.32;;;14.50;83.50;;;;;;5045740;28;20037;-58
2022/03/30 09:14:09;;;;;;;29.27;12.85;;;14.60;83.00;;;;;;5040906;28;20453;-57
2022/03/30 09:16:43;;;;;;;27.63;12.23;;;14.50;82.40;;;;;;5043173;28;20037;-59
2022/03/30 09:19:10;;;;;;;32.22;11.55;;;14.70;83.10;;;;;;5042629;28;20033;-58
2022/03/30 09:21:48;;;;;;;23.60;11.77;;;14.90;82.70;;;;;;5043186;28;20329;-58
2022/03/30 09:24:16;;;;;;;44.85;12.93;;;14.90;81.40;;;;;;5041632;28;20033;-58
2022/03/30 09:26:42;;;;;;;41.58;12.23;;;14.90;80.70;;;;;;5042769;28;20036;-58
2022/03/30 09:29:09;;;;;;;29.15;12.05;;;14.90;79.40;;;;;;5042909;28;20454;-58
2022/03/30 09:31:36;;;;;;;39.72;12.65;;;15.00;81.00;;;;;;5043153;28;20033;-58
2022/03/30 09:34:07;;;;;;;28.45;11.85;;;15.30;78.50;;;;;;5041388;28;20123;-57
2022/03/30 09:36:41;;;;;;;39.13;12.45;;;15.40;76.20;;;;;;5044349;28;20040;-58
2022/03/30 09:39:26;;;;;;;22.73;12.52;;;15.50;74.50;;;;;;5042671;28;20036;-55
2022/03/30 09:41:53;;;;;;;25.13;13.40;;;15.20;73.10;;;;;;5041251;28;20496;-58
2022/03/30 09:44:19;;;;;;;27.25;12.20;;;15.50;74.20;;;;;;5041744;28;20033;-59
2022/03/30 09:46:56;;;;;;;28.00;12.52;;;15.60;73.20;;;;;;5042035;28;20071;-58
2022/03/30 09:49:45;;;;;;;25.90;12.35;;;15.70;71.10;;;;;;5041374;28;20092;-58
2022/03/30 09:52:11;;;;;;;23.50;13.07;;;15.60;71.60;;;;;;5040801;28;20044;-57
2022/03/30 09:54:58;;;;;;;30.77;13.27;;;15.60;74.60;;;;;;5042066;28;20125;-59
2022/03/30 09:57:34;;;;;;;36.53;13.68;;;15.40;74.00;;;;;;5043032;28;20033;-58
2022/03/30 10:00:14;;;;;;;31.75;14.27;;;15.40;77.20;;;;;;5041951;28;20060;-58
2022/03/30 10:02:49;;;;;;;28.02;13.60;;;15.60;76.00;;;;;;5050606;28;20503;-58
2022/03/30 10:05:18;;;;;;;30.23;14.23;;;15.70;75.90;;;;;;5053370;28;20025;-58
2022/03/30 10:07:45;;;;;;;29.38;13.63;;;15.80;75.40;;;;;;5051163;28;20036;-59
2022/03/30 10:10:13;;;;;;;38.70;14.23;;;15.90;74.00;;;;;;5053004;28;20067;-58
2022/03/30 10:12:40;;;;;;;26.00;13.27;;;15.70;75.00;;;;;;5053475;28;20029;-58
2022/03/30 10:15:07;;;;;;;26.48;14.02;;;15.80;75.60;;;;;;5053014;28;20091;-59
2022/03/30 10:17:34;;;;;;;26.95;13.52;;;16.00;74.20;;;;;;5053245;28;20029;-58
2022/03/30 10:20:01;;;;;;;48.25;14.82;;;15.90;72.70;;;;;;5051911;28;20029;-59
2022/03/30 10:22:52;;;;;;;40.67;14.63;;;15.90;73.50;;;;;;5053348;28;20021;-59
2022/03/30 10:25:51;;;;;;;40.97;14.48;;;16.10;72.90;;;;;;5052988;28;20029;-59
2022/03/30 10:28:43;;;;;;;33.63;14.23;;;16.00;72.00;;;;;;5053171;28;20036;-59
2022/03/30 10:31:10;;;;;;;34.25;14.80;;;16.00;73.90;;;;;;5053165;28;20036;-59
2022/03/30 10:33:40;;;;;;;36.45;15.15;;;16.10;71.20;;;;;;5053058;28;20428;-59
2022/03/30 10:36:26;;;;;;;40.03;14.25;;;16.00;71.30;;;;;;5052596;28;20015;-59
2022/03/30 10:39:14;;;;;;;46.38;15.02;;;16.20;71.80;;;;;;5041209;28;20138;-59
2022/03/30 10:42:03;;;;;;;30.17;14.15;;;16.20;70.80;;;;;;5042415;28;20522;-59
2022/03/30 10:44:55;;;;;;;33.30;14.45;;;16.60;70.70;;;;;;5040769;28;20044;-59
2022/03/30 10:47:23;;;;;;;33.47;15.30;;;16.70;70.10;;;;;;5040850;28;20047;-59
2022/03/30 10:49:56;;;;;;;31.17;14.73;;;17.10;69.30;;;;;;5040755;28;20601;-57
2022/03/30 10:52:39;;;;;;;;;;;16.90;67.10;;;;;;5041917;28;22270;-59
2022/03/30 10:55:13;;;;;;;39.47;16.65;;;17.20;66.70;;;;;;5040621;28;19928;-59
2022/03/30 10:57:53;;;;;;;41.03;15.23;;;17.40;65.30;;;;;;5041830;28;20033;-59
2022/03/30 11:00:29;;;;;;;53.00;15.98;;;17.40;64.90;;;;;;5042043;28;20102;-59
2022/03/30 11:03:14;;;;;;;40.60;14.25;;;17.70;65.90;;;;;;5040685;28;20135;-59
2022/03/30 11:05:46;;;;;;;34.42;14.48;;;17.60;62.50;;;;;;5042079;28;20055;-59
2022/03/30 11:08:33;;;;;;;35.63;13.40;;;17.70;61.20;;;;;;5041371;28;20033;-59
2022/03/30 11:11:35;;;;;;;51.50;13.40;;;17.80;63.80;;;;;;5041545;28;20534;-59
2022/03/30 11:14:33;;;;;;;44.13;15.23;;;18.10;60.70;;;;;;5041316;28;20124;-59
2022/03/30 11:17:04;;;;;;;52.60;15.32;;;18.80;60.60;;;;;;5040998;28;20095;-59
2022/03/30 11:19:57;;;;;;;41.50;14.63;;;18.90;57.80;;;;;;5040916;28;20037;-59
2022/03/30 11:23:01;;;;;;;38.50;13.73;;;19.10;57.20;;;;;;5040687;28;20025;-59
2022/03/30 11:25:27;;;;;;;32.50;13.70;;;18.40;55.30;;;;;;5041429;28;20033;-59
2022/03/30 11:27:59;;;;;;;42.95;13.80;;;18.20;55.50;;;;;;5040476;28;20033;-59
2022/03/30 11:30:29;;;;;;;31.02;13.80;;;18.40;57.10;;;;;;5041224;28;20067;-59
2022/03/30 11:33:01;;;;;;;44.78;13.50;;;18.10;55.70;;;;;;5040646;28;20042;-59
2022/03/30 11:35:33;;;;;;;41.65;12.35;;;18.20;57.10;;;;;;5040802;28;20067;-59
2022/03/30 11:38:08;;;;;;;38.40;12.88;;;18.40;55.30;;;;;;5040005;28;20068;-59
2022/03/30 11:40:36;;;;;;;41.75;13.68;;;18.40;53.70;;;;;;5040661;28;20021;-59
2022/03/30 11:43:02;;;;;;;40.80;13.40;;;18.50;54.40;;;;;;5039981;28;20033;-59
2022/03/30 11:45:29;;;;;;;53.35;24.67;;;19.10;53.40;;;;;;5040455;28;20116;-59
2022/03/30 11:48:07;;;;;;;45.42;13.55;;;19.10;54.10;;;;;;5042278;28;20035;-59
2022/03/30 11:50:42;;;;;;;42.72;13.88;;;19.70;55.00;;;;;;5041299;28;20082;-59
2022/03/30 11:53:32;;;;;;;61.00;22.27;;;19.10;55.20;;;;;;5040193;28;20353;-59
2022/03/30 11:56:09;;;;;;;55.83;18.60;;;18.80;53.20;;;;;;5040494;28;20033;-59
2022/03/30 11:58:40;;;;;;;50.10;15.55;;;19.30;54.60;;;;;;5040085;28;20052;-59
2022/03/30 12:01:12;;;;;;;55.35;13.55;;;19.30;52.70;;;;;;5059741;28;20028;-59
2022/03/30 12:03:40;;;;;;;51.15;15.38;;;19.00;57.20;;;;;;5040702;28;20082;-59
2022/03/30 12:06:07;;;;;;;38.10;14.60;;;18.20;59.10;;;;;;5059408;28;20502;-59
2022/03/30 12:08:43;;;;;;;35.63;15.13;;;18.50;60.50;;;;;;5060025;28;20424;-59
2022/03/30 12:11:09;;;;;;;56.60;16.98;;;18.20;60.50;;;;;;5070368;28;20479;-59
2022/03/30 12:13:35;;;;;;;46.13;15.38;;;18.10;61.90;;;;;;5069828;28;20052;-59
2022/03/30 12:16:08;;;;;;;36.10;14.88;;;18.20;60.30;;;;;;5070763;28;20028;-59
2022/03/30 12:18:48;;;;;;;52.08;16.63;;;17.80;62.00;;;;;;5070678;28;20070;-59
2022/03/30 12:21:47;;;;;;;46.70;15.15;;;18.00;62.80;;;;;;5070792;28;20037;-59
2022/03/30 12:24:16;;;;;;;53.78;14.60;;;17.20;61.80;;;;;;5070472;28;20157;-59
2022/03/30 12:26:42;;;;;;;47.58;15.60;;;17.10;62.30;;;;;;5070797;28;20099;-59
2022/03/30 12:29:14;;;;;;;42.25;15.07;;;16.80;63.00;;;;;;5070797;28;20020;-59
2022/03/30 12:31:49;;;;;;;51.25;15.90;;;17.00;63.40;;;;;;5071018;28;20024;-58
2022/03/30 12:34:17;;;;;;;52.03;16.40;;;17.20;63.00;;;;;;5070842;28;20035;-58
2022/03/30 12:36:49;;;;;;;34.85;17.10;;;17.00;63.80;;;;;;5070922;28;20056;-59
2022/03/30 12:39:18;;;;;;;38.88;16.15;;;16.30;64.80;;;;;;5071081;28;20372;-58
2022/03/30 12:41:45;;;;;;;33.85;18.00;;;16.20;65.50;;;;;;5071064;28;20070;-59
2022/03/30 12:44:10;;;;;;;33.03;17.30;;;16.00;65.30;;;;;;5071117;28;20119;-58
2022/03/30 12:46:36;;;;;;;41.47;16.60;;;16.40;66.40;;;;;;5071022;28;20518;-59